sensor_id;sensor_type;location;lat;lon;timestamp;P1;durP1;ratioP1;P2;durP2;ratioP2
34234;SDS011;20500;49.856;20.290;2022-09-09T00:03:23;13.80;;;9.50;;
34234;SDS011;20500;49.856;20.290;2022-09-09T00:06:31;14.60;;;9.10;;
34234;SDS011;20500;49.856;20.290;2022-09-09T00:09:47;12.90;;;8.10;;
34234;SDS011;20500;49.856;20.290;2022-09-09T00:13:05;11.70;;;7.90;;
34234;SDS011;20500;49.856;20.290;2022-09-09T00:16:21;11.30;;;6.40;;
34234;SDS011;20500;49.856;20.290;2022-09-09T00:19:31;11.50;;;6.20;;
34234;SDS011;20500;49.856;20.290;2022-09-09T00:22:43;11.10;;;6.20;;
34234;SDS011;20500;49.856;20.290;2022-09-09T00:26:04;12.40;;;6.20;;
34234;SDS011;20500;49.856;20.290;2022-09-09T00:29:20;10.60;;;6.00;;
34234;SDS011;20500;49.856;20.290;2022-09-09T00:32:34;10.00;;;5.50;;
34234;SDS011;20500;49.856;20.290;2022-09-09T00:35:43;10.60;;;4.70;;
34234;SDS011;20500;49.856;20.290;2022-09-09T00:38:52;10.00;;;5.50;;
34234;SDS011;20500;49.856;20.290;2022-09-09T00:42:05;9.70;;;5.10;;
34234;SDS011;20500;49.856;20.290;2022-09-09T00:45:25;9.70;;;4.30;;
34234;SDS011;20500;49.856;20.290;2022-09-09T00:48:45;8.20;;;4.30;;
34234;SDS011;20500;49.856;20.290;2022-09-09T00:52:02;9.00;;;4.40;;
34234;SDS011;20500;49.856;20.290;2022-09-09T00:55:22;9.80;;;4.20;;
34234;SDS011;20500;49.856;20.290;2022-09-09T00:58:43;9.10;;;3.90;;
34234;SDS011;20500;49.856;20.290;2022-09-09T01:02:02;9.50;;;4.50;;
34234;SDS011;20500;49.856;20.290;2022-09-09T01:05:17;9.30;;;4.10;;
34234;SDS011;20500;49.856;20.290;2022-09-09T01:08:42;9.00;;;4.90;;
34234;SDS011;20500;49.856;20.290;2022-09-09T01:12:09;8.70;;;3.70;;
34234;SDS011;20500;49.856;20.290;2022-09-09T01:15:19;8.50;;;3.80;;
34234;SDS011;20500;49.856;20.290;2022-09-09T01:18:30;9.40;;;3.80;;
34234;SDS011;20500;49.856;20.290;2022-09-09T01:21:50;8.30;;;3.90;;
34234;SDS011;20500;49.856;20.290;2022-09-09T01:29:06;8.80;;;3.80;;
34234;SDS011;20500;49.856;20.290;2022-09-09T01:35:54;8.80;;;3.80;;
34234;SDS011;20500;49.856;20.290;2022-09-09T01:39:04;10.30;;;3.70;;
34234;SDS011;20500;49.856;20.290;2022-09-09T01:42:11;7.10;;;3.20;;
34234;SDS011;20500;49.856;20.290;2022-09-09T01:45:19;6.80;;;3.30;;
34234;SDS011;20500;49.856;20.290;2022-09-09T01:48:26;7.40;;;3.50;;
34234;SDS011;20500;49.856;20.290;2022-09-09T01:51:32;7.30;;;3.30;;
34234;SDS011;20500;49.856;20.290;2022-09-09T01:54:38;11.60;;;3.80;;
34234;SDS011;20500;49.856;20.290;2022-09-09T01:57:46;8.40;;;3.30;;
34234;SDS011;20500;49.856;20.290;2022-09-09T02:01:02;8.50;;;3.30;;
34234;SDS011;20500;49.856;20.290;2022-09-09T02:04:21;7.70;;;3.10;;
34234;SDS011;20500;49.856;20.290;2022-09-09T02:07:37;6.50;;;3.00;;
34234;SDS011;20500;49.856;20.290;2022-09-09T02:10:46;7.50;;;3.60;;
34234;SDS011;20500;49.856;20.290;2022-09-09T02:13:59;10.50;;;3.70;;
34234;SDS011;20500;49.856;20.290;2022-09-09T02:17:09;10.40;;;3.30;;
34234;SDS011;20500;49.856;20.290;2022-09-09T02:20:18;8.20;;;3.30;;
34234;SDS011;20500;49.856;20.290;2022-09-09T02:23:27;6.50;;;3.00;;
34234;SDS011;20500;49.856;20.290;2022-09-09T02:26:34;8.30;;;3.00;;
34234;SDS011;20500;49.856;20.290;2022-09-09T02:29:43;9.00;;;3.20;;
34234;SDS011;20500;49.856;20.290;2022-09-09T02:32:50;8.20;;;2.80;;
34234;SDS011;20500;49.856;20.290;2022-09-09T02:36:00;6.10;;;2.90;;
34234;SDS011;20500;49.856;20.290;2022-09-09T02:39:09;9.90;;;3.30;;
34234;SDS011;20500;49.856;20.290;2022-09-09T02:42:16;8.40;;;3.30;;
34234;SDS011;20500;49.856;20.290;2022-09-09T02:48:29;6.90;;;3.00;;
34234;SDS011;20500;49.856;20.290;2022-09-09T02:51:44;8.60;;;3.20;;
34234;SDS011;20500;49.856;20.290;2022-09-09T02:54:59;7.30;;;2.90;;
34234;SDS011;20500;49.856;20.290;2022-09-09T02:58:14;7.00;;;2.90;;
34234;SDS011;20500;49.856;20.290;2022-09-09T03:01:22;8.80;;;3.10;;
34234;SDS011;20500;49.856;20.290;2022-09-09T03:04:28;7.30;;;3.10;;
34234;SDS011;20500;49.856;20.290;2022-09-09T03:07:35;8.70;;;2.90;;
34234;SDS011;20500;49.856;20.290;2022-09-09T03:10:42;7.50;;;3.20;;
34234;SDS011;20500;49.856;20.290;2022-09-09T03:13:48;8.30;;;2.90;;
34234;SDS011;20500;49.856;20.290;2022-09-09T03:19:59;7.60;;;3.20;;
34234;SDS011;20500;49.856;20.290;2022-09-09T03:23:05;8.10;;;3.30;;
34234;SDS011;20500;49.856;20.290;2022-09-09T03:26:17;10.20;;;3.30;;
34234;SDS011;20500;49.856;20.290;2022-09-09T03:32:27;10.40;;;3.60;;
34234;SDS011;20500;49.856;20.290;2022-09-09T03:35:34;9.50;;;3.50;;
34234;SDS011;20500;49.856;20.290;2022-09-09T03:38:40;10.10;;;3.60;;
34234;SDS011;20500;49.856;20.290;2022-09-09T03:41:46;7.90;;;3.40;;
34234;SDS011;20500;49.856;20.290;2022-09-09T03:44:52;9.60;;;3.60;;
34234;SDS011;20500;49.856;20.290;2022-09-09T03:48:00;10.80;;;4.10;;
34234;SDS011;20500;49.856;20.290;2022-09-09T03:51:08;9.60;;;3.60;;
34234;SDS011;20500;49.856;20.290;2022-09-09T03:54:14;9.00;;;3.40;;
34234;SDS011;20500;49.856;20.290;2022-09-09T03:57:20;9.70;;;3.60;;
34234;SDS011;20500;49.856;20.290;2022-09-09T04:00:26;8.90;;;3.40;;
34234;SDS011;20500;49.856;20.290;2022-09-09T04:03:33;7.80;;;3.20;;
34234;SDS011;20500;49.856;20.290;2022-09-09T04:09:43;6.70;;;3.10;;
34234;SDS011;20500;49.856;20.290;2022-09-09T04:12:49;9.70;;;3.20;;
34234;SDS011;20500;49.856;20.290;2022-09-09T04:15:56;9.90;;;3.40;;
34234;SDS011;20500;49.856;20.290;2022-09-09T04:19:03;8.20;;;3.50;;
34234;SDS011;20500;49.856;20.290;2022-09-09T04:22:10;6.70;;;2.90;;
34234;SDS011;20500;49.856;20.290;2022-09-09T04:25:16;11.20;;;3.50;;
34234;SDS011;20500;49.856;20.290;2022-09-09T04:28:23;10.50;;;3.60;;
34234;SDS011;20500;49.856;20.290;2022-09-09T04:31:30;8.60;;;3.40;;
34234;SDS011;20500;49.856;20.290;2022-09-09T04:34:37;8.10;;;3.10;;
34234;SDS011;20500;49.856;20.290;2022-09-09T04:37:44;11.70;;;3.50;;
34234;SDS011;20500;49.856;20.290;2022-09-09T04:40:50;9.30;;;4.00;;
34234;SDS011;20500;49.856;20.290;2022-09-09T04:43:57;8.60;;;3.50;;
34234;SDS011;20500;49.856;20.290;2022-09-09T04:47:03;9.90;;;3.70;;
34234;SDS011;20500;49.856;20.290;2022-09-09T04:50:09;8.50;;;3.60;;
34234;SDS011;20500;49.856;20.290;2022-09-09T04:53:15;9.70;;;3.20;;
34234;SDS011;20500;49.856;20.290;2022-09-09T04:59:26;9.40;;;3.70;;
34234;SDS011;20500;49.856;20.290;2022-09-09T05:02:32;11.60;;;3.80;;
34234;SDS011;20500;49.856;20.290;2022-09-09T05:05:40;9.60;;;3.70;;
34234;SDS011;20500;49.856;20.290;2022-09-09T05:08:47;11.20;;;3.90;;
34234;SDS011;20500;49.856;20.290;2022-09-09T05:14:57;10.60;;;5.30;;
34234;SDS011;20500;49.856;20.290;2022-09-09T05:18:04;15.40;;;8.80;;
34234;SDS011;20500;49.856;20.290;2022-09-09T05:21:11;12.10;;;5.70;;
34234;SDS011;20500;49.856;20.290;2022-09-09T05:24:19;12.60;;;6.90;;
34234;SDS011;20500;49.856;20.290;2022-09-09T05:27:25;13.20;;;7.10;;
34234;SDS011;20500;49.856;20.290;2022-09-09T05:30:34;12.10;;;5.60;;
34234;SDS011;20500;49.856;20.290;2022-09-09T05:33:40;11.40;;;6.10;;
34234;SDS011;20500;49.856;20.290;2022-09-09T05:36:48;20.10;;;10.00;;
34234;SDS011;20500;49.856;20.290;2022-09-09T05:39:55;14.60;;;8.40;;
34234;SDS011;20500;49.856;20.290;2022-09-09T05:43:02;13.30;;;6.50;;
34234;SDS011;20500;49.856;20.290;2022-09-09T05:49:13;17.70;;;11.40;;
34234;SDS011;20500;49.856;20.290;2022-09-09T05:55:23;12.40;;;5.80;;
34234;SDS011;20500;49.856;20.290;2022-09-09T05:58:29;8.40;;;3.40;;
34234;SDS011;20500;49.856;20.290;2022-09-09T06:01:36;7.40;;;3.10;;
34234;SDS011;20500;49.856;20.290;2022-09-09T06:04:43;9.60;;;3.50;;
34234;SDS011;20500;49.856;20.290;2022-09-09T06:07:49;13.20;;;7.30;;
34234;SDS011;20500;49.856;20.290;2022-09-09T06:11:02;8.30;;;3.40;;
34234;SDS011;20500;49.856;20.290;2022-09-09T06:14:09;10.30;;;5.30;;
34234;SDS011;20500;49.856;20.290;2022-09-09T06:17:15;9.40;;;3.60;;
34234;SDS011;20500;49.856;20.290;2022-09-09T06:23:25;11.30;;;5.80;;
34234;SDS011;20500;49.856;20.290;2022-09-09T06:26:33;17.40;;;11.70;;
34234;SDS011;20500;49.856;20.290;2022-09-09T06:29:40;14.20;;;7.60;;
34234;SDS011;20500;49.856;20.290;2022-09-09T06:32:46;9.70;;;4.20;;
34234;SDS011;20500;49.856;20.290;2022-09-09T06:35:52;16.60;;;10.40;;
34234;SDS011;20500;49.856;20.290;2022-09-09T06:39:00;14.80;;;8.70;;
34234;SDS011;20500;49.856;20.290;2022-09-09T06:42:06;12.00;;;6.70;;
34234;SDS011;20500;49.856;20.290;2022-09-09T06:45:12;10.90;;;4.90;;
34234;SDS011;20500;49.856;20.290;2022-09-09T06:51:23;12.80;;;6.80;;
34234;SDS011;20500;49.856;20.290;2022-09-09T06:54:30;13.00;;;7.00;;
34234;SDS011;20500;49.856;20.290;2022-09-09T07:00:40;10.70;;;5.70;;
34234;SDS011;20500;49.856;20.290;2022-09-09T07:06:52;14.10;;;8.50;;
34234;SDS011;20500;49.856;20.290;2022-09-09T07:13:03;14.10;;;8.40;;
34234;SDS011;20500;49.856;20.290;2022-09-09T07:16:10;14.60;;;7.80;;
34234;SDS011;20500;49.856;20.290;2022-09-09T07:19:18;9.90;;;4.40;;
34234;SDS011;20500;49.856;20.290;2022-09-09T07:25:28;11.30;;;6.30;;
34234;SDS011;20500;49.856;20.290;2022-09-09T07:31:38;12.90;;;6.70;;
34234;SDS011;20500;49.856;20.290;2022-09-09T07:34:45;12.90;;;7.90;;
34234;SDS011;20500;49.856;20.290;2022-09-09T07:37:52;15.70;;;9.10;;
34234;SDS011;20500;49.856;20.290;2022-09-09T07:41:03;14.30;;;6.70;;
34234;SDS011;20500;49.856;20.290;2022-09-09T07:44:14;8.50;;;3.80;;
34234;SDS011;20500;49.856;20.290;2022-09-09T07:47:21;18.40;;;11.90;;
34234;SDS011;20500;49.856;20.290;2022-09-09T07:53:32;11.60;;;6.00;;
34234;SDS011;20500;49.856;20.290;2022-09-09T07:56:39;9.70;;;4.00;;
34234;SDS011;20500;49.856;20.290;2022-09-09T07:59:45;9.30;;;3.30;;
34234;SDS011;20500;49.856;20.290;2022-09-09T08:02:52;7.40;;;3.10;;
34234;SDS011;20500;49.856;20.290;2022-09-09T08:06:01;7.80;;;3.00;;
34234;SDS011;20500;49.856;20.290;2022-09-09T08:09:09;8.00;;;3.50;;
34234;SDS011;20500;49.856;20.290;2022-09-09T08:12:15;9.10;;;2.60;;
34234;SDS011;20500;49.856;20.290;2022-09-09T08:15:21;7.60;;;2.40;;
34234;SDS011;20500;49.856;20.290;2022-09-09T08:18:27;11.40;;;5.80;;
34234;SDS011;20500;49.856;20.290;2022-09-09T08:21:34;8.60;;;3.40;;
34234;SDS011;20500;49.856;20.290;2022-09-09T08:24:42;8.50;;;3.70;;
34234;SDS011;20500;49.856;20.290;2022-09-09T08:27:50;10.90;;;4.40;;
34234;SDS011;20500;49.856;20.290;2022-09-09T08:30:57;11.40;;;5.90;;
34234;SDS011;20500;49.856;20.290;2022-09-09T08:34:11;8.00;;;2.90;;
34234;SDS011;20500;49.856;20.290;2022-09-09T08:37:17;11.60;;;5.70;;
34234;SDS011;20500;49.856;20.290;2022-09-09T08:40:26;8.00;;;2.50;;
34234;SDS011;20500;49.856;20.290;2022-09-09T08:43:37;9.00;;;4.20;;
34234;SDS011;20500;49.856;20.290;2022-09-09T08:46:46;5.90;;;1.90;;
34234;SDS011;20500;49.856;20.290;2022-09-09T08:50:07;10.00;;;4.10;;
34234;SDS011;20500;49.856;20.290;2022-09-09T08:53:26;11.40;;;6.20;;
34234;SDS011;20500;49.856;20.290;2022-09-09T08:56:40;12.90;;;5.50;;
34234;SDS011;20500;49.856;20.290;2022-09-09T08:59:47;9.00;;;4.30;;
34234;SDS011;20500;49.856;20.290;2022-09-09T09:02:56;7.50;;;3.20;;
34234;SDS011;20500;49.856;20.290;2022-09-09T09:06:13;5.00;;;2.20;;
34234;SDS011;20500;49.856;20.290;2022-09-09T09:09:31;9.30;;;3.70;;
34234;SDS011;20500;49.856;20.290;2022-09-09T09:12:43;11.00;;;5.40;;
34234;SDS011;20500;49.856;20.290;2022-09-09T09:15:52;5.80;;;2.10;;
34234;SDS011;20500;49.856;20.290;2022-09-09T09:19:02;5.60;;;2.10;;
34234;SDS011;20500;49.856;20.290;2022-09-09T09:22:13;10.80;;;3.40;;
34234;SDS011;20500;49.856;20.290;2022-09-09T09:25:26;11.90;;;4.60;;
34234;SDS011;20500;49.856;20.290;2022-09-09T09:28:35;6.50;;;2.70;;
34234;SDS011;20500;49.856;20.290;2022-09-09T09:31:44;3.10;;;1.50;;
34234;SDS011;20500;49.856;20.290;2022-09-09T09:34:52;6.00;;;1.40;;
34234;SDS011;20500;49.856;20.290;2022-09-09T09:38:05;2.80;;;1.40;;
34234;SDS011;20500;49.856;20.290;2022-09-09T09:41:40;5.20;;;1.70;;
34234;SDS011;20500;49.856;20.290;2022-09-09T09:44:48;10.20;;;3.50;;
34234;SDS011;20500;49.856;20.290;2022-09-09T09:48:02;5.20;;;1.40;;
34234;SDS011;20500;49.856;20.290;2022-09-09T09:51:10;5.00;;;1.90;;
34234;SDS011;20500;49.856;20.290;2022-09-09T09:54:21;6.50;;;2.10;;
34234;SDS011;20500;49.856;20.290;2022-09-09T09:57:32;3.40;;;1.30;;
34234;SDS011;20500;49.856;20.290;2022-09-09T10:00:39;7.80;;;3.30;;
34234;SDS011;20500;49.856;20.290;2022-09-09T10:03:54;8.50;;;3.20;;
34234;SDS011;20500;49.856;20.290;2022-09-09T10:07:09;3.30;;;1.40;;
34234;SDS011;20500;49.856;20.290;2022-09-09T10:10:19;2.40;;;1.00;;
34234;SDS011;20500;49.856;20.290;2022-09-09T10:13:32;9.60;;;3.90;;
34234;SDS011;20500;49.856;20.290;2022-09-09T10:16:52;7.50;;;3.30;;
34234;SDS011;20500;49.856;20.290;2022-09-09T10:23:42;9.50;;;3.30;;
34234;SDS011;20500;49.856;20.290;2022-09-09T10:26:58;9.70;;;4.40;;
34234;SDS011;20500;49.856;20.290;2022-09-09T10:30:12;8.10;;;3.00;;
34234;SDS011;20500;49.856;20.290;2022-09-09T10:33:22;8.90;;;4.00;;
34234;SDS011;20500;49.856;20.290;2022-09-09T10:36:36;9.50;;;3.60;;
34234;SDS011;20500;49.856;20.290;2022-09-09T10:39:53;8.00;;;3.10;;
34234;SDS011;20500;49.856;20.290;2022-09-09T10:43:09;4.80;;;1.90;;
34234;SDS011;20500;49.856;20.290;2022-09-09T10:46:26;3.70;;;1.30;;
34234;SDS011;20500;49.856;20.290;2022-09-09T10:49:45;6.50;;;2.80;;
34234;SDS011;20500;49.856;20.290;2022-09-09T10:53:12;10.40;;;5.00;;
34234;SDS011;20500;49.856;20.290;2022-09-09T10:59:33;5.10;;;1.90;;
34234;SDS011;20500;49.856;20.290;2022-09-09T11:02:44;5.60;;;2.10;;
34234;SDS011;20500;49.856;20.290;2022-09-09T11:05:53;4.80;;;1.60;;
34234;SDS011;20500;49.856;20.290;2022-09-09T11:09:03;5.00;;;1.60;;
34234;SDS011;20500;49.856;20.290;2022-09-09T11:12:18;6.10;;;1.90;;
34234;SDS011;20500;49.856;20.290;2022-09-09T11:15:26;5.10;;;1.70;;
34234;SDS011;20500;49.856;20.290;2022-09-09T11:18:39;4.50;;;1.60;;
34234;SDS011;20500;49.856;20.290;2022-09-09T11:21:48;3.50;;;1.30;;
34234;SDS011;20500;49.856;20.290;2022-09-09T11:24:58;3.80;;;1.30;;
34234;SDS011;20500;49.856;20.290;2022-09-09T11:28:13;1.80;;;1.10;;
34234;SDS011;20500;49.856;20.290;2022-09-09T11:31:38;3.00;;;1.10;;
34234;SDS011;20500;49.856;20.290;2022-09-09T11:38:09;3.80;;;1.30;;
34234;SDS011;20500;49.856;20.290;2022-09-09T11:41:32;3.20;;;1.20;;
34234;SDS011;20500;49.856;20.290;2022-09-09T11:44:40;1.30;;;1.00;;
34234;SDS011;20500;49.856;20.290;2022-09-09T11:47:52;7.10;;;2.80;;
34234;SDS011;20500;49.856;20.290;2022-09-09T11:51:00;5.00;;;1.80;;
34234;SDS011;20500;49.856;20.290;2022-09-09T11:54:25;5.40;;;1.40;;
34234;SDS011;20500;49.856;20.290;2022-09-09T11:57:35;5.40;;;1.40;;
34234;SDS011;20500;49.856;20.290;2022-09-09T12:00:42;5.80;;;1.60;;
34234;SDS011;20500;49.856;20.290;2022-09-09T12:03:50;4.40;;;1.50;;
34234;SDS011;20500;49.856;20.290;2022-09-09T12:07:00;5.60;;;1.80;;
34234;SDS011;20500;49.856;20.290;2022-09-09T12:10:20;2.80;;;1.40;;
34234;SDS011;20500;49.856;20.290;2022-09-09T12:13:30;2.30;;;1.00;;
34234;SDS011;20500;49.856;20.290;2022-09-09T12:16:36;2.30;;;1.10;;
34234;SDS011;20500;49.856;20.290;2022-09-09T12:19:43;2.40;;;1.00;;
34234;SDS011;20500;49.856;20.290;2022-09-09T12:22:55;4.60;;;1.60;;
34234;SDS011;20500;49.856;20.290;2022-09-09T12:29:41;2.20;;;0.80;;
34234;SDS011;20500;49.856;20.290;2022-09-09T12:33:00;2.80;;;1.20;;
34234;SDS011;20500;49.856;20.290;2022-09-09T12:36:13;2.90;;;1.20;;
34234;SDS011;20500;49.856;20.290;2022-09-09T12:39:24;2.60;;;1.00;;
34234;SDS011;20500;49.856;20.290;2022-09-09T12:42:40;3.40;;;1.20;;
34234;SDS011;20500;49.856;20.290;2022-09-09T12:45:46;2.70;;;1.00;;
34234;SDS011;20500;49.856;20.290;2022-09-09T12:48:59;3.10;;;1.00;;
34234;SDS011;20500;49.856;20.290;2022-09-09T12:52:06;2.50;;;1.00;;
34234;SDS011;20500;49.856;20.290;2022-09-09T12:55:18;4.40;;;1.80;;
34234;SDS011;20500;49.856;20.290;2022-09-09T12:58:27;1.80;;;1.10;;
34234;SDS011;20500;49.856;20.290;2022-09-09T13:01:35;4.00;;;1.50;;
34234;SDS011;20500;49.856;20.290;2022-09-09T13:04:42;4.90;;;1.30;;
34234;SDS011;20500;49.856;20.290;2022-09-09T13:07:49;3.50;;;1.20;;
34234;SDS011;20500;49.856;20.290;2022-09-09T13:10:56;2.60;;;1.10;;
34234;SDS011;20500;49.856;20.290;2022-09-09T13:14:06;2.70;;;1.30;;
34234;SDS011;20500;49.856;20.290;2022-09-09T13:17:23;1.60;;;1.00;;
34234;SDS011;20500;49.856;20.290;2022-09-09T13:20:31;2.80;;;1.30;;
34234;SDS011;20500;49.856;20.290;2022-09-09T13:23:37;3.70;;;1.50;;
34234;SDS011;20500;49.856;20.290;2022-09-09T13:26:43;5.40;;;2.40;;
34234;SDS011;20500;49.856;20.290;2022-09-09T13:29:58;3.20;;;1.50;;
34234;SDS011;20500;49.856;20.290;2022-09-09T13:33:06;2.40;;;1.40;;
34234;SDS011;20500;49.856;20.290;2022-09-09T13:36:29;3.50;;;1.60;;
34234;SDS011;20500;49.856;20.290;2022-09-09T13:39:37;2.70;;;1.20;;
34234;SDS011;20500;49.856;20.290;2022-09-09T13:42:43;3.50;;;1.30;;
34234;SDS011;20500;49.856;20.290;2022-09-09T13:45:54;3.50;;;1.40;;
34234;SDS011;20500;49.856;20.290;2022-09-09T13:49:03;4.30;;;1.60;;
34234;SDS011;20500;49.856;20.290;2022-09-09T13:52:25;3.70;;;1.60;;
34234;SDS011;20500;49.856;20.290;2022-09-09T13:55:34;1.70;;;1.10;;
34234;SDS011;20500;49.856;20.290;2022-09-09T13:58:42;2.80;;;1.10;;
34234;SDS011;20500;49.856;20.290;2022-09-09T14:01:48;2.10;;;0.90;;
34234;SDS011;20500;49.856;20.290;2022-09-09T14:04:55;5.00;;;1.40;;
34234;SDS011;20500;49.856;20.290;2022-09-09T14:08:01;2.70;;;1.30;;
34234;SDS011;20500;49.856;20.290;2022-09-09T14:11:10;2.40;;;1.10;;
34234;SDS011;20500;49.856;20.290;2022-09-09T14:14:17;2.90;;;1.00;;
34234;SDS011;20500;49.856;20.290;2022-09-09T14:17:23;1.30;;;0.90;;
34234;SDS011;20500;49.856;20.290;2022-09-09T14:20:34;3.90;;;1.20;;
34234;SDS011;20500;49.856;20.290;2022-09-09T14:23:39;4.20;;;1.30;;
34234;SDS011;20500;49.856;20.290;2022-09-09T14:26:45;4.60;;;1.70;;
34234;SDS011;20500;49.856;20.290;2022-09-09T14:29:51;4.50;;;1.90;;
34234;SDS011;20500;49.856;20.290;2022-09-09T14:32:58;6.30;;;1.80;;
34234;SDS011;20500;49.856;20.290;2022-09-09T14:36:04;5.00;;;1.50;;
34234;SDS011;20500;49.856;20.290;2022-09-09T14:39:10;3.20;;;1.30;;
34234;SDS011;20500;49.856;20.290;2022-09-09T14:42:16;3.60;;;1.40;;
34234;SDS011;20500;49.856;20.290;2022-09-09T14:45:22;6.30;;;1.70;;
34234;SDS011;20500;49.856;20.290;2022-09-09T14:48:30;5.10;;;1.70;;
34234;SDS011;20500;49.856;20.290;2022-09-09T14:51:36;4.80;;;1.80;;
34234;SDS011;20500;49.856;20.290;2022-09-09T14:54:42;4.10;;;1.70;;
34234;SDS011;20500;49.856;20.290;2022-09-09T14:57:48;4.20;;;1.50;;
34234;SDS011;20500;49.856;20.290;2022-09-09T15:00:54;4.70;;;1.50;;
34234;SDS011;20500;49.856;20.290;2022-09-09T15:04:05;2.40;;;1.30;;
34234;SDS011;20500;49.856;20.290;2022-09-09T15:07:11;4.60;;;1.50;;
34234;SDS011;20500;49.856;20.290;2022-09-09T15:10:17;4.40;;;1.60;;
34234;SDS011;20500;49.856;20.290;2022-09-09T15:13:23;5.70;;;1.90;;
34234;SDS011;20500;49.856;20.290;2022-09-09T15:16:30;4.40;;;1.80;;
34234;SDS011;20500;49.856;20.290;2022-09-09T15:19:36;3.40;;;1.40;;
34234;SDS011;20500;49.856;20.290;2022-09-09T15:22:44;2.60;;;1.40;;
34234;SDS011;20500;49.856;20.290;2022-09-09T15:25:52;5.50;;;1.90;;
34234;SDS011;20500;49.856;20.290;2022-09-09T15:28:59;5.90;;;1.90;;
34234;SDS011;20500;49.856;20.290;2022-09-09T15:32:05;5.90;;;1.80;;
34234;SDS011;20500;49.856;20.290;2022-09-09T15:35:12;7.20;;;2.00;;
34234;SDS011;20500;49.856;20.290;2022-09-09T15:38:18;5.80;;;2.00;;
34234;SDS011;20500;49.856;20.290;2022-09-09T15:41:24;3.90;;;1.70;;
34234;SDS011;20500;49.856;20.290;2022-09-09T15:44:31;5.40;;;1.80;;
34234;SDS011;20500;49.856;20.290;2022-09-09T15:47:45;3.60;;;1.80;;
34234;SDS011;20500;49.856;20.290;2022-09-09T15:50:54;5.20;;;1.80;;
34234;SDS011;20500;49.856;20.290;2022-09-09T15:54:27;6.10;;;2.20;;
34234;SDS011;20500;49.856;20.290;2022-09-09T15:57:37;4.40;;;2.00;;
34234;SDS011;20500;49.856;20.290;2022-09-09T16:00:43;5.30;;;2.00;;
34234;SDS011;20500;49.856;20.290;2022-09-09T16:03:49;5.70;;;2.00;;
34234;SDS011;20500;49.856;20.290;2022-09-09T16:06:56;9.90;;;2.40;;
34234;SDS011;20500;49.856;20.290;2022-09-09T16:10:04;6.40;;;2.30;;
34234;SDS011;20500;49.856;20.290;2022-09-09T16:13:11;7.70;;;2.40;;
34234;SDS011;20500;49.856;20.290;2022-09-09T16:16:17;5.60;;;2.20;;
34234;SDS011;20500;49.856;20.290;2022-09-09T16:19:26;6.00;;;2.00;;
34234;SDS011;20500;49.856;20.290;2022-09-09T16:22:32;8.70;;;2.40;;
34234;SDS011;20500;49.856;20.290;2022-09-09T16:25:38;5.80;;;2.00;;
34234;SDS011;20500;49.856;20.290;2022-09-09T16:28:45;5.70;;;2.40;;
34234;SDS011;20500;49.856;20.290;2022-09-09T16:31:51;5.40;;;2.20;;
34234;SDS011;20500;49.856;20.290;2022-09-09T16:35:05;6.40;;;2.50;;
34234;SDS011;20500;49.856;20.290;2022-09-09T16:38:12;6.70;;;2.20;;
34234;SDS011;20500;49.856;20.290;2022-09-09T16:41:18;8.30;;;2.70;;
34234;SDS011;20500;49.856;20.290;2022-09-09T16:44:24;7.70;;;2.70;;
34234;SDS011;20500;49.856;20.290;2022-09-09T16:47:30;9.20;;;2.90;;
34234;SDS011;20500;49.856;20.290;2022-09-09T16:50:37;6.80;;;2.30;;
34234;SDS011;20500;49.856;20.290;2022-09-09T16:53:43;6.60;;;2.50;;
34234;SDS011;20500;49.856;20.290;2022-09-09T16:56:49;6.80;;;2.40;;
34234;SDS011;20500;49.856;20.290;2022-09-09T16:59:55;8.50;;;2.80;;
34234;SDS011;20500;49.856;20.290;2022-09-09T17:03:02;6.70;;;2.90;;
34234;SDS011;20500;49.856;20.290;2022-09-09T17:06:10;8.70;;;2.60;;
34234;SDS011;20500;49.856;20.290;2022-09-09T17:09:17;7.70;;;3.10;;
34234;SDS011;20500;49.856;20.290;2022-09-09T17:12:25;9.10;;;2.90;;
34234;SDS011;20500;49.856;20.290;2022-09-09T17:15:31;10.80;;;3.30;;
34234;SDS011;20500;49.856;20.290;2022-09-09T17:18:37;9.10;;;3.70;;
34234;SDS011;20500;49.856;20.290;2022-09-09T17:21:43;12.50;;;3.90;;
34234;SDS011;20500;49.856;20.290;2022-09-09T17:25:10;11.20;;;3.90;;
34234;SDS011;20500;49.856;20.290;2022-09-09T17:28:17;10.30;;;4.70;;
34234;SDS011;20500;49.856;20.290;2022-09-09T17:31:28;10.60;;;4.40;;
34234;SDS011;20500;49.856;20.290;2022-09-09T17:34:35;10.20;;;4.70;;
34234;SDS011;20500;49.856;20.290;2022-09-09T17:37:41;10.70;;;5.00;;
34234;SDS011;20500;49.856;20.290;2022-09-09T17:40:47;13.90;;;5.60;;
34234;SDS011;20500;49.856;20.290;2022-09-09T17:50:21;11.50;;;5.20;;
34234;SDS011;20500;49.856;20.290;2022-09-09T17:53:27;10.70;;;4.70;;
34234;SDS011;20500;49.856;20.290;2022-09-09T17:56:34;12.20;;;5.60;;
34234;SDS011;20500;49.856;20.290;2022-09-09T17:59:41;12.80;;;6.90;;
34234;SDS011;20500;49.856;20.290;2022-09-09T18:02:47;13.20;;;6.50;;
34234;SDS011;20500;49.856;20.290;2022-09-09T18:05:53;12.00;;;5.40;;
34234;SDS011;20500;49.856;20.290;2022-09-09T18:09:06;14.00;;;5.60;;
34234;SDS011;20500;49.856;20.290;2022-09-09T18:12:15;11.10;;;5.10;;
34234;SDS011;20500;49.856;20.290;2022-09-09T18:18:41;13.20;;;6.40;;
34234;SDS011;20500;49.856;20.290;2022-09-09T18:21:47;13.50;;;6.70;;
34234;SDS011;20500;49.856;20.290;2022-09-09T18:24:53;15.50;;;7.90;;
34234;SDS011;20500;49.856;20.290;2022-09-09T18:27:59;16.40;;;7.80;;
34234;SDS011;20500;49.856;20.290;2022-09-09T18:31:06;15.00;;;7.20;;
34234;SDS011;20500;49.856;20.290;2022-09-09T18:34:15;15.70;;;8.60;;
34234;SDS011;20500;49.856;20.290;2022-09-09T18:37:21;19.10;;;11.80;;
34234;SDS011;20500;49.856;20.290;2022-09-09T18:43:32;19.50;;;10.40;;
34234;SDS011;20500;49.856;20.290;2022-09-09T18:49:43;15.90;;;8.10;;
34234;SDS011;20500;49.856;20.290;2022-09-09T18:52:49;15.70;;;8.20;;
34234;SDS011;20500;49.856;20.290;2022-09-09T18:55:58;14.30;;;7.60;;
34234;SDS011;20500;49.856;20.290;2022-09-09T18:59:05;13.10;;;7.00;;
34234;SDS011;20500;49.856;20.290;2022-09-09T19:02:13;14.20;;;7.40;;
34234;SDS011;20500;49.856;20.290;2022-09-09T19:08:23;14.50;;;6.60;;
34234;SDS011;20500;49.856;20.290;2022-09-09T19:11:29;13.10;;;6.90;;
34234;SDS011;20500;49.856;20.290;2022-09-09T19:14:36;15.20;;;6.60;;
34234;SDS011;20500;49.856;20.290;2022-09-09T19:17:42;14.40;;;7.30;;
34234;SDS011;20500;49.856;20.290;2022-09-09T19:23:54;13.90;;;6.60;;
34234;SDS011;20500;49.856;20.290;2022-09-09T19:27:03;12.30;;;5.90;;
34234;SDS011;20500;49.856;20.290;2022-09-09T19:30:10;13.60;;;6.90;;
34234;SDS011;20500;49.856;20.290;2022-09-09T19:33:16;13.00;;;7.70;;
34234;SDS011;20500;49.856;20.290;2022-09-09T19:39:27;14.10;;;6.80;;
34234;SDS011;20500;49.856;20.290;2022-09-09T19:42:33;13.00;;;7.20;;
34234;SDS011;20500;49.856;20.290;2022-09-09T19:48:44;19.80;;;12.40;;
34234;SDS011;20500;49.856;20.290;2022-09-09T19:51:50;15.40;;;8.70;;
34234;SDS011;20500;49.856;20.290;2022-09-09T19:54:57;12.50;;;6.20;;
34234;SDS011;20500;49.856;20.290;2022-09-09T19:58:03;14.60;;;6.90;;
34234;SDS011;20500;49.856;20.290;2022-09-09T20:04:14;13.70;;;8.20;;
34234;SDS011;20500;49.856;20.290;2022-09-09T20:10:25;13.80;;;8.20;;
34234;SDS011;20500;49.856;20.290;2022-09-09T20:13:32;14.00;;;7.30;;
34234;SDS011;20500;49.856;20.290;2022-09-09T20:16:40;15.80;;;7.90;;
34234;SDS011;20500;49.856;20.290;2022-09-09T20:19:48;13.60;;;7.10;;
34234;SDS011;20500;49.856;20.290;2022-09-09T20:26:01;14.00;;;7.60;;
34234;SDS011;20500;49.856;20.290;2022-09-09T20:29:11;14.20;;;7.80;;